<?xml version="1.0" encoding="UTF-8" standalone="no" ?>
<gpx xmlns="http://www.topografix.com/GPX/1/1" xmlns:xsi="http://www.w3.org/2001/XMLSchema-instance" xsi:schemaLocation="http://www.topografix.com/GPX/1/1 http://www.topografix.com/GPX/1/1/gpx.xsd" version="1.1" creator="VisuGPX - https://www.visugpx.com">
  <metadata>
    <name>Course à pied dans l'après-midi</name>
  </metadata>
  <trk>
    <name><![CDATA[Course à pied dans l'après-midi_1]]></name>
    <trkseg>
      <trkpt lat="48.72405" lon="7.03785">
        <ele>250.7</ele>
        <time>2024-01-21T12:33:22Z</time>
      </trkpt>
      <trkpt lat="48.72405" lon="7.03789">
        <ele>250.7</ele>
        <time>2024-01-21T12:33:23Z</time>
      </trkpt>
      <trkpt lat="48.72406" lon="7.03792">
        <ele>250.6</ele>
        <time>2024-01-21T12:33:25Z</time>
      </trkpt>
      <trkpt lat="48.72419" lon="7.03816">
        <ele>250.3</ele>
        <time>2024-01-21T12:33:33Z</time>
      </trkpt>
      <trkpt lat="48.72436" lon="7.0382">
        <ele>250.1</ele>
        <time>2024-01-21T12:33:41Z</time>
      </trkpt>
      <trkpt lat="48.72452" lon="7.03805">
        <ele>249.9</ele>
        <time>2024-01-21T12:33:50Z</time>
      </trkpt>
      <trkpt lat="48.72454" lon="7.03807">
        <ele>249.9</ele>
        <time>2024-01-21T12:33:53Z</time>
      </trkpt>
      <trkpt lat="48.72453" lon="7.03798">
        <ele>249.9</ele>
        <time>2024-01-21T12:34:00Z</time>
      </trkpt>
      <trkpt lat="48.72456" lon="7.03776">
        <ele>249.8</ele>
        <time>2024-01-21T12:34:08Z</time>
      </trkpt>
      <trkpt lat="48.7244" lon="7.03763">
        <ele>249.8</ele>
        <time>2024-01-21T12:34:17Z</time>
      </trkpt>
      <trkpt lat="48.7243" lon="7.03787">
        <ele>249.9</ele>
        <time>2024-01-21T12:34:26Z</time>
      </trkpt>
      <trkpt lat="48.72424" lon="7.03807">
        <ele>250</ele>
        <time>2024-01-21T12:34:33Z</time>
      </trkpt>
      <trkpt lat="48.72427" lon="7.03811">
        <ele>250</ele>
        <time>2024-01-21T12:34:35Z</time>
      </trkpt>
      <trkpt lat="48.72445" lon="7.038">
        <ele>250.1</ele>
        <time>2024-01-21T12:34:43Z</time>
      </trkpt>
      <trkpt lat="48.72454" lon="7.03778">
        <ele>250.2</ele>
        <time>2024-01-21T12:34:51Z</time>
      </trkpt>
      <trkpt lat="48.72444" lon="7.03767">
        <ele>250.2</ele>
        <time>2024-01-21T12:34:56Z</time>
      </trkpt>
      <trkpt lat="48.72431" lon="7.03787">
        <ele>250.4</ele>
        <time>2024-01-21T12:35:04Z</time>
      </trkpt>
      <trkpt lat="48.72428" lon="7.03792">
        <ele>250.4</ele>
        <time>2024-01-21T12:35:06Z</time>
      </trkpt>
      <trkpt lat="48.72425" lon="7.03792">
        <ele>250.4</ele>
        <time>2024-01-21T12:35:08Z</time>
      </trkpt>
      <trkpt lat="48.7242" lon="7.03785">
        <ele>250.5</ele>
        <time>2024-01-21T12:35:12Z</time>
      </trkpt>
      <trkpt lat="48.72411" lon="7.03789">
        <ele>250.6</ele>
        <time>2024-01-21T12:35:20Z</time>
      </trkpt>
      <trkpt lat="48.72413" lon="7.03792">
        <ele>250.4</ele>
        <time>2024-01-21T12:35:50Z</time>
      </trkpt>
      <trkpt lat="48.72429" lon="7.03804">
        <ele>249.8</ele>
        <time>2024-01-21T12:35:57Z</time>
      </trkpt>
      <trkpt lat="48.72439" lon="7.03806">
        <ele>249.3</ele>
        <time>2024-01-21T12:36:01Z</time>
      </trkpt>
      <trkpt lat="48.72449" lon="7.03807">
        <ele>248.9</ele>
        <time>2024-01-21T12:37:51Z</time>
      </trkpt>
      <trkpt lat="48.7245" lon="7.03808">
        <ele>248.7</ele>
        <time>2024-01-21T12:37:53Z</time>
      </trkpt>
      <trkpt lat="48.72455" lon="7.03819">
        <ele>248.3</ele>
        <time>2024-01-21T12:37:58Z</time>
      </trkpt>
      <trkpt lat="48.72451" lon="7.03847">
        <ele>248.7</ele>
        <time>2024-01-21T12:38:05Z</time>
      </trkpt>
      <trkpt lat="48.72457" lon="7.03874">
        <ele>248.8</ele>
        <time>2024-01-21T12:38:13Z</time>
      </trkpt>
      <trkpt lat="48.72469" lon="7.03894">
        <ele>248.9</ele>
        <time>2024-01-21T12:38:21Z</time>
      </trkpt>
      <trkpt lat="48.72481" lon="7.03917">
        <ele>249.1</ele>
        <time>2024-01-21T12:38:29Z</time>
      </trkpt>
      <trkpt lat="48.72489" lon="7.03941">
        <ele>249.4</ele>
        <time>2024-01-21T12:38:37Z</time>
      </trkpt>
      <trkpt lat="48.725" lon="7.03966">
        <ele>249.1</ele>
        <time>2024-01-21T12:38:45Z</time>
      </trkpt>
      <trkpt lat="48.72512" lon="7.03988">
        <ele>248.3</ele>
        <time>2024-01-21T12:38:52Z</time>
      </trkpt>
      <trkpt lat="48.72515" lon="7.03996">
        <ele>248.2</ele>
        <time>2024-01-21T12:38:56Z</time>
      </trkpt>
      <trkpt lat="48.72522" lon="7.04023">
        <ele>247.5</ele>
        <time>2024-01-21T12:39:07Z</time>
      </trkpt>
      <trkpt lat="48.72527" lon="7.04035">
        <ele>247.2</ele>
        <time>2024-01-21T12:39:15Z</time>
      </trkpt>
      <trkpt lat="48.72526" lon="7.04032">
        <ele>247.2</ele>
        <time>2024-01-21T12:39:17Z</time>
      </trkpt>
      <trkpt lat="48.72524" lon="7.0403">
        <ele>247.3</ele>
        <time>2024-01-21T12:39:20Z</time>
      </trkpt>
      <trkpt lat="48.72523" lon="7.04028">
        <ele>247.4</ele>
        <time>2024-01-21T12:39:22Z</time>
      </trkpt>
      <trkpt lat="48.72516" lon="7.04023">
        <ele>247.7</ele>
        <time>2024-01-21T12:39:28Z</time>
      </trkpt>
      <trkpt lat="48.72507" lon="7.03998">
        <ele>248.4</ele>
        <time>2024-01-21T12:39:36Z</time>
      </trkpt>
      <trkpt lat="48.72498" lon="7.03973">
        <ele>249.1</ele>
        <time>2024-01-21T12:39:43Z</time>
      </trkpt>
      <trkpt lat="48.72488" lon="7.03948">
        <ele>249.4</ele>
        <time>2024-01-21T12:39:52Z</time>
      </trkpt>
      <trkpt lat="48.72478" lon="7.03925">
        <ele>249.3</ele>
        <time>2024-01-21T12:40:00Z</time>
      </trkpt>
      <trkpt lat="48.72467" lon="7.03901">
        <ele>249</ele>
        <time>2024-01-21T12:40:09Z</time>
      </trkpt>
      <trkpt lat="48.72461" lon="7.03896">
        <ele>249.1</ele>
        <time>2024-01-21T12:40:13Z</time>
      </trkpt>
      <trkpt lat="48.7246" lon="7.0389">
        <ele>249.1</ele>
        <time>2024-01-21T12:42:09Z</time>
      </trkpt>
      <trkpt lat="48.72456" lon="7.03872">
        <ele>248.7</ele>
        <time>2024-01-21T12:42:15Z</time>
      </trkpt>
      <trkpt lat="48.72458" lon="7.03872">
        <ele>248.7</ele>
        <time>2024-01-21T12:44:26Z</time>
      </trkpt>
      <trkpt lat="48.72464" lon="7.0389">
        <ele>248.9</ele>
        <time>2024-01-21T12:44:35Z</time>
      </trkpt>
      <trkpt lat="48.72465" lon="7.0389">
        <ele>248.9</ele>
        <time>2024-01-21T12:45:20Z</time>
      </trkpt>
      <trkpt lat="48.72466" lon="7.03894">
        <ele>248.9</ele>
        <time>2024-01-21T12:45:22Z</time>
      </trkpt>
      <trkpt lat="48.72471" lon="7.03907">
        <ele>249.1</ele>
        <time>2024-01-21T12:45:27Z</time>
      </trkpt>
    </trkseg>
  </trk>
</gpx>